Estestar — 3ECR8 — position and weather

sailwx.info

Track history (hours):
 
Tides and Currents Weather Stations Pressure Air Temp Water Temp Dewpoint Dewpoint Depression Visibility Wind Speed Wind Dir Waves Ship Positions

Estestar

Last reported at 2018-Aug-15 08:07 UTC. Time now 2018-Aug-19 22:51 UTC.
Position N 45°10' E 036°29'.

Length 133 m; draft 4.5 m.

Type: Cargo ship. MMSI: 371448000.

Date/timePositionNaut miles runAvg speedWind from/ knotsBaromVisibWave heightAir tempDewpointWater temp
2018-Aug-15 08:07N 45°10' E 036°29'0 0.0
2018-Aug-15 07:58N 45°10' E 036°29'0 0.0
2018-Aug-15 07:25N 45°10' E 036°29'0 0.0
2018-Aug-15 06:58N 45°10' E 036°29'0 0.0
2018-Aug-15 06:19N 45°10' E 036°29'0 0.0
2018-Aug-15 05:49N 45°11' E 036°29'0 0.0
2018-Aug-15 05:28N 45°11' E 036°29'0 0.0
2018-Aug-14 20:04N 45°10' E 036°29'0 0.1
2018-Aug-14 19:49N 45°10' E 036°29'0 0.0
2018-Aug-14 19:16N 45°10' E 036°29'0 0.1
2018-Aug-14 18:49N 45°10' E 036°29'0 0.0
2018-Aug-14 18:28N 45°10' E 036°29'0 0.0
2018-Aug-14 17:55N 45°10' E 036°29'0 0.0
2018-Aug-14 17:28N 45°10' E 036°29'0 0.0
2018-Aug-14 15:40N 45°10' E 036°29'0 0.0
2018-Aug-14 15:28N 45°10' E 036°29'0 0.0
2018-Aug-14 14:55N 45°10' E 036°29'0 0.0
2018-Aug-14 14:28N 45°10' E 036°29'0 0.0
2018-Aug-14 13:58N 45°10' E 036°29'0 0.0
2018-Aug-14 13:25N 45°10' E 036°29'0 0.0
2018-Aug-14 12:58N 45°10' E 036°29'0 0.0
2018-Aug-14 12:25N 45°10' E 036°29'0 0.0
2018-Aug-14 11:58N 45°11' E 036°29'0 0.0
2018-Aug-14 11:28N 45°10' E 036°29'0 0.0
2018-Aug-14 10:55N 45°10' E 036°29'0 0.0
2018-Aug-14 10:28N 45°10' E 036°29'0 0.0
2018-Aug-14 09:52N 45°10' E 036°29'0 0.1
2018-Aug-14 09:28N 45°10' E 036°29'0 0.1
2018-Aug-14 09:00N 45°11' E 036°29'3 6.3
2018-Aug-14 08:30N 45°07' E 036°30'510.7
2018-Aug-14 08:00N 45°02' E 036°31'911.2
2018-Aug-14 07:13N 44°53' E 036°31'211.2
2018-Aug-14 07:00N 44°51' E 036°31'5 9.6
2018-Aug-14 06:30N 44°47' E 036°27'511.0
2018-Aug-14 06:00N 44°44' E 036°21'8310.9
2018-Aug-13 22:22N 43°58' E 034°44'511.3
2018-Aug-13 21:57N 43°55' E 034°39'511.3
2018-Aug-13 21:30N 43°52' E 034°33'611.5
2018-Aug-13 21:00N 43°49' E 034°26'611.6
2018-Aug-13 20:30N 43°46' E 034°20'611.6
2018-Aug-13 20:00N 43°43' E 034°13'611.5
2018-Aug-13 19:30N 43°40' E 034°06'611.5
2018-Aug-13 19:00N 43°37' E 033°60'611.4
2018-Aug-13 18:30N 43°34' E 033°53'611.3
2018-Aug-13 18:00N 43°31' E 033°47'  
2018-Aug-07 15:12N 43°38' E 014°12'2810.6
2018-Aug-07 12:37N 43°56' E 013°43'2310.9
2018-Aug-07 10:31N 44°09' E 013°17'011.1
2018-Aug-07 10:30N 44°09' E 013°17'711.1
2018-Aug-07 09:52N 44°13' E 013°09'411.3
2018-Aug-07 09:30N 44°15' E 013°04'611.2
2018-Aug-07 08:57N 44°19' E 012°57'611.3
2018-Aug-07 08:25N 44°22' E 012°50'1010.8
2018-Aug-07 07:31N 44°27' E 012°38'010.6
2018-Aug-07 07:30N 44°27' E 012°38'5 9.5
2018-Aug-07 07:00N 44°30' E 012°32'5 9.5
2018-Aug-07 06:30N 44°30' E 012°25'4 7.2
2018-Aug-07 06:00N 44°30' E 012°20'3 6.0
2018-Aug-07 05:30N 44°29' E 012°16'2 3.8
2018-Aug-07 04:57N 44°27' E 012°15'1 0.2
2018-Aug-07 01:53N 44°27' E 012°15'0 0.0
2018-Aug-07 01:14N 44°27' E 012°15'0 0.0
2018-Aug-07 00:56N 44°27' E 012°15'0 0.0
2018-Aug-06 23:08N 44°27' E 012°15'0 0.0
2018-Aug-06 22:56N 44°27' E 012°15'0 0.0
2018-Aug-06 22:26N 44°27' E 012°15'0 0.0
2018-Aug-06 21:56N 44°27' E 012°15'0 0.0
2018-Aug-06 21:29N 44°27' E 012°15'0 0.0
2018-Aug-06 20:56N 44°27' E 012°15'0 0.0
2018-Aug-06 20:26N 44°27' E 012°15'0 0.0
2018-Aug-06 19:59N 44°27' E 012°15'0 0.0
2018-Aug-06 18:53N 44°27' E 012°15'0 0.0
2018-Aug-06 18:23N 44°27' E 012°15'0 0.0
2018-Aug-06 17:53N 44°27' E 012°15'0 0.0
2018-Aug-06 17:29N 44°27' E 012°15'0 0.0
2018-Aug-06 16:59N 44°27' E 012°15'0 0.0
2018-Aug-06 06:53N 44°27' E 012°15'0 0.0
2018-Aug-06 05:29N 44°27' E 012°15'0 0.0
2018-Aug-06 04:59N 44°27' E 012°15'0 0.0
2018-Aug-05 11:53N 44°27' E 012°15'  
Track history (hours):
 
Tides and Currents Weather Stations Pressure Air Temp Water Temp Dewpoint Dewpoint Depression Visibility Wind Speed Wind Dir Waves Ship Positions

Estestar

Last reported at 2018-Aug-15 08:07 UTC. Time now 2018-Aug-19 22:51 UTC.
Position N 45°10' E 036°29'.

Length 133 m; draft 4.5 m.

Type: Cargo ship. MMSI: 371448000.

Date/timePositionNaut miles runAvg speedWind from/ knotsBaromVisibWave heightAir tempDewpointWater temp
2018-Aug-15 08:07N 45°10' E 036°29'0 0.0
2018-Aug-15 07:58N 45°10' E 036°29'0 0.0
2018-Aug-15 07:25N 45°10' E 036°29'0 0.0
2018-Aug-15 06:58N 45°10' E 036°29'0 0.0
2018-Aug-15 06:19N 45°10' E 036°29'0 0.0
2018-Aug-15 05:49N 45°11' E 036°29'0 0.0
2018-Aug-15 05:28N 45°11' E 036°29'0 0.0
2018-Aug-14 20:04N 45°10' E 036°29'0 0.1
2018-Aug-14 19:49N 45°10' E 036°29'0 0.0
2018-Aug-14 19:16N 45°10' E 036°29'0 0.1
2018-Aug-14 18:49N 45°10' E 036°29'0 0.0
2018-Aug-14 18:28N 45°10' E 036°29'0 0.0
2018-Aug-14 17:55N 45°10' E 036°29'0 0.0
2018-Aug-14 17:28N 45°10' E 036°29'0 0.0
2018-Aug-14 15:40N 45°10' E 036°29'0 0.0
2018-Aug-14 15:28N 45°10' E 036°29'0 0.0
2018-Aug-14 14:55N 45°10' E 036°29'0 0.0
2018-Aug-14 14:28N 45°10' E 036°29'0 0.0
2018-Aug-14 13:58N 45°10' E 036°29'0 0.0
2018-Aug-14 13:25N 45°10' E 036°29'0 0.0
2018-Aug-14 12:58N 45°10' E 036°29'0 0.0
2018-Aug-14 12:25N 45°10' E 036°29'0 0.0
2018-Aug-14 11:58N 45°11' E 036°29'0 0.0
2018-Aug-14 11:28N 45°10' E 036°29'0 0.0
2018-Aug-14 10:55N 45°10' E 036°29'0 0.0
2018-Aug-14 10:28N 45°10' E 036°29'0 0.0
2018-Aug-14 09:52N 45°10' E 036°29'0 0.1
2018-Aug-14 09:28N 45°10' E 036°29'0 0.1
2018-Aug-14 09:00N 45°11' E 036°29'3 6.3
2018-Aug-14 08:30N 45°07' E 036°30'510.7
2018-Aug-14 08:00N 45°02' E 036°31'911.2
2018-Aug-14 07:13N 44°53' E 036°31'211.2
2018-Aug-14 07:00N 44°51' E 036°31'5 9.6
2018-Aug-14 06:30N 44°47' E 036°27'511.0
2018-Aug-14 06:00N 44°44' E 036°21'8310.9
2018-Aug-13 22:22N 43°58' E 034°44'511.3
2018-Aug-13 21:57N 43°55' E 034°39'511.3
2018-Aug-13 21:30N 43°52' E 034°33'611.5
2018-Aug-13 21:00N 43°49' E 034°26'611.6
2018-Aug-13 20:30N 43°46' E 034°20'611.6
2018-Aug-13 20:00N 43°43' E 034°13'611.5
2018-Aug-13 19:30N 43°40' E 034°06'611.5
2018-Aug-13 19:00N 43°37' E 033°60'611.4
2018-Aug-13 18:30N 43°34' E 033°53'611.3
2018-Aug-13 18:00N 43°31' E 033°47'  
2018-Aug-07 15:12N 43°38' E 014°12'2810.6
2018-Aug-07 12:37N 43°56' E 013°43'2310.9
2018-Aug-07 10:31N 44°09' E 013°17'011.1
2018-Aug-07 10:30N 44°09' E 013°17'711.1
2018-Aug-07 09:52N 44°13' E 013°09'411.3
2018-Aug-07 09:30N 44°15' E 013°04'611.2
2018-Aug-07 08:57N 44°19' E 012°57'611.3
2018-Aug-07 08:25N 44°22' E 012°50'1010.8
2018-Aug-07 07:31N 44°27' E 012°38'010.6
2018-Aug-07 07:30N 44°27' E 012°38'5 9.5
2018-Aug-07 07:00N 44°30' E 012°32'5 9.5
2018-Aug-07 06:30N 44°30' E 012°25'4 7.2
2018-Aug-07 06:00N 44°30' E 012°20'3 6.0
2018-Aug-07 05:30N 44°29' E 012°16'2 3.8
2018-Aug-07 04:57N 44°27' E 012°15'1 0.2
2018-Aug-07 01:53N 44°27' E 012°15'0 0.0
2018-Aug-07 01:14N 44°27' E 012°15'0 0.0
2018-Aug-07 00:56N 44°27' E 012°15'0 0.0
2018-Aug-06 23:08N 44°27' E 012°15'0 0.0
2018-Aug-06 22:56N 44°27' E 012°15'0 0.0
2018-Aug-06 22:26N 44°27' E 012°15'0 0.0
2018-Aug-06 21:56N 44°27' E 012°15'0 0.0
2018-Aug-06 21:29N 44°27' E 012°15'0 0.0
2018-Aug-06 20:56N 44°27' E 012°15'0 0.0
2018-Aug-06 20:26N 44°27' E 012°15'0 0.0
2018-Aug-06 19:59N 44°27' E 012°15'0 0.0
2018-Aug-06 18:53N 44°27' E 012°15'0 0.0
2018-Aug-06 18:23N 44°27' E 012°15'0 0.0
2018-Aug-06 17:53N 44°27' E 012°15'0 0.0
2018-Aug-06 17:29N 44°27' E 012°15'0 0.0
2018-Aug-06 16:59N 44°27' E 012°15'0 0.0
2018-Aug-06 06:53N 44°27' E 012°15'0 0.0
2018-Aug-06 05:29N 44°27' E 012°15'0 0.0
2018-Aug-06 04:59N 44°27' E 012°15'0 0.0
2018-Aug-05 11:53N 44°27' E 012°15'  

Dump ship's entire track history